sensor_id;sensor_type;location;lat;lon;timestamp;temperature;humidity
9998;DHT22;5038;53.064;8.624;2023-04-03T00:01:24;3.10;99.90
9998;DHT22;5038;53.064;8.624;2023-04-03T00:03:52;3.10;99.90
9998;DHT22;5038;53.064;8.624;2023-04-03T00:06:22;3.00;99.90
9998;DHT22;5038;53.064;8.624;2023-04-03T00:08:51;3.00;99.90
9998;DHT22;5038;53.064;8.624;2023-04-03T00:11:19;2.90;99.90
9998;DHT22;5038;53.064;8.624;2023-04-03T00:13:49;2.90;99.90
9998;DHT22;5038;53.064;8.624;2023-04-03T00:16:21;2.90;99.90
9998;DHT22;5038;53.064;8.624;2023-04-03T00:18:55;2.90;99.90
9998;DHT22;5038;53.064;8.624;2023-04-03T00:21:24;2.80;99.90
9998;DHT22;5038;53.064;8.624;2023-04-03T00:23:52;2.80;99.90
9998;DHT22;5038;53.064;8.624;2023-04-03T00:26:21;2.90;99.90
9998;DHT22;5038;53.064;8.624;2023-04-03T00:28:49;2.80;99.90
9998;DHT22;5038;53.064;8.624;2023-04-03T00:31:17;2.80;99.90
9998;DHT22;5038;53.064;8.624;2023-04-03T00:33:47;2.80;99.90
9998;DHT22;5038;53.064;8.624;2023-04-03T00:36:15;3.20;99.90
9998;DHT22;5038;53.064;8.624;2023-04-03T00:38:43;2.70;99.90
9998;DHT22;5038;53.064;8.624;2023-04-03T00:41:11;2.70;99.90
9998;DHT22;5038;53.064;8.624;2023-04-03T00:43:40;2.60;99.90
9998;DHT22;5038;53.064;8.624;2023-04-03T00:46:08;2.60;99.90
9998;DHT22;5038;53.064;8.624;2023-04-03T00:48:38;2.60;99.90
9998;DHT22;5038;53.064;8.624;2023-04-03T00:51:12;2.50;99.90
9998;DHT22;5038;53.064;8.624;2023-04-03T00:53:46;2.50;99.90
9998;DHT22;5038;53.064;8.624;2023-04-03T00:56:17;2.40;99.90
9998;DHT22;5038;53.064;8.624;2023-04-03T00:58:49;2.40;99.90
9998;DHT22;5038;53.064;8.624;2023-04-03T01:01:22;2.80;99.90
9998;DHT22;5038;53.064;8.624;2023-04-03T01:03:51;2.30;99.90
9998;DHT22;5038;53.064;8.624;2023-04-03T01:06:28;2.30;99.90
9998;DHT22;5038;53.064;8.624;2023-04-03T01:09:04;2.20;99.90
9998;DHT22;5038;53.064;8.624;2023-04-03T01:11:33;2.10;99.90
9998;DHT22;5038;53.064;8.624;2023-04-03T01:14:02;2.20;99.90
9998;DHT22;5038;53.064;8.624;2023-04-03T01:16:30;2.10;99.90
9998;DHT22;5038;53.064;8.624;2023-04-03T01:18:59;2.10;99.90
9998;DHT22;5038;53.064;8.624;2023-04-03T01:21:59;2.00;99.90
9998;DHT22;5038;53.064;8.624;2023-04-03T01:24:34;2.00;99.90
9998;DHT22;5038;53.064;8.624;2023-04-03T01:27:07;1.90;99.90
9998;DHT22;5038;53.064;8.624;2023-04-03T01:29:37;1.90;99.90
9998;DHT22;5038;53.064;8.624;2023-04-03T01:32:07;1.90;99.90
9998;DHT22;5038;53.064;8.624;2023-04-03T01:34:36;1.80;99.90
9998;DHT22;5038;53.064;8.624;2023-04-03T01:37:05;1.70;99.90
9998;DHT22;5038;53.064;8.624;2023-04-03T01:39:33;1.80;99.90
9998;DHT22;5038;53.064;8.624;2023-04-03T01:42:02;1.70;99.90
9998;DHT22;5038;53.064;8.624;2023-04-03T01:44:35;1.70;99.90
9998;DHT22;5038;53.064;8.624;2023-04-03T01:47:05;1.70;99.90
9998;DHT22;5038;53.064;8.624;2023-04-03T01:49:36;1.70;99.90
9998;DHT22;5038;53.064;8.624;2023-04-03T01:52:05;1.60;99.90
9998;DHT22;5038;53.064;8.624;2023-04-03T01:54:33;2.00;99.90
9998;DHT22;5038;53.064;8.624;2023-04-03T01:57:01;1.50;99.90
9998;DHT22;5038;53.064;8.624;2023-04-03T01:59:30;1.50;99.90
9998;DHT22;5038;53.064;8.624;2023-04-03T02:01:58;1.60;99.90
9998;DHT22;5038;53.064;8.624;2023-04-03T02:04:27;1.50;99.90
9998;DHT22;5038;53.064;8.624;2023-04-03T02:06:57;1.40;99.90
9998;DHT22;5038;53.064;8.624;2023-04-03T02:09:25;1.40;99.90
9998;DHT22;5038;53.064;8.624;2023-04-03T02:11:54;1.40;99.90
9998;DHT22;5038;53.064;8.624;2023-04-03T02:14:23;1.30;99.90
9998;DHT22;5038;53.064;8.624;2023-04-03T02:16:53;1.40;99.90
9998;DHT22;5038;53.064;8.624;2023-04-03T02:19:22;1.40;99.90
9998;DHT22;5038;53.064;8.624;2023-04-03T02:21:51;1.70;99.90
9998;DHT22;5038;53.064;8.624;2023-04-03T02:24:20;1.60;99.90
9998;DHT22;5038;53.064;8.624;2023-04-03T02:26:49;1.20;99.90
9998;DHT22;5038;53.064;8.624;2023-04-03T02:29:17;1.30;99.90
9998;DHT22;5038;53.064;8.624;2023-04-03T02:31:45;1.20;99.90
9998;DHT22;5038;53.064;8.624;2023-04-03T02:34:14;1.20;99.90
9998;DHT22;5038;53.064;8.624;2023-04-03T02:36:43;1.10;99.90
9998;DHT22;5038;53.064;8.624;2023-04-03T02:39:13;1.10;99.90
9998;DHT22;5038;53.064;8.624;2023-04-03T02:41:43;1.10;99.90
9998;DHT22;5038;53.064;8.624;2023-04-03T02:44:18;1.10;99.90
9998;DHT22;5038;53.064;8.624;2023-04-03T02:46:46;1.00;99.90
9998;DHT22;5038;53.064;8.624;2023-04-03T02:49:14;1.00;99.90
9998;DHT22;5038;53.064;8.624;2023-04-03T02:51:43;1.00;99.90
9998;DHT22;5038;53.064;8.624;2023-04-03T02:54:12;0.90;99.90
9998;DHT22;5038;53.064;8.624;2023-04-03T02:56:46;0.90;99.90
9998;DHT22;5038;53.064;8.624;2023-04-03T02:59:14;0.90;99.90
9998;DHT22;5038;53.064;8.624;2023-04-03T03:01:43;0.90;99.90
9998;DHT22;5038;53.064;8.624;2023-04-03T03:04:12;0.90;99.90
9998;DHT22;5038;53.064;8.624;2023-04-03T03:06:40;0.90;99.90
9998;DHT22;5038;53.064;8.624;2023-04-03T03:09:10;0.80;99.90
9998;DHT22;5038;53.064;8.624;2023-04-03T03:11:42;0.90;99.90
9998;DHT22;5038;53.064;8.624;2023-04-03T03:14:12;0.80;99.90
9998;DHT22;5038;53.064;8.624;2023-04-03T03:16:42;0.80;99.90
9998;DHT22;5038;53.064;8.624;2023-04-03T03:19:10;0.80;99.90
9998;DHT22;5038;53.064;8.624;2023-04-03T03:21:39;0.80;99.90
9998;DHT22;5038;53.064;8.624;2023-04-03T03:24:07;0.70;99.90
9998;DHT22;5038;53.064;8.624;2023-04-03T03:26:36;0.70;99.90
9998;DHT22;5038;53.064;8.624;2023-04-03T03:29:04;0.70;99.90
9998;DHT22;5038;53.064;8.624;2023-04-03T03:31:34;0.70;99.90
9998;DHT22;5038;53.064;8.624;2023-04-03T03:34:02;0.70;99.90
9998;DHT22;5038;53.064;8.624;2023-04-03T03:36:30;0.60;99.90
9998;DHT22;5038;53.064;8.624;2023-04-03T03:39:00;0.60;99.90
9998;DHT22;5038;53.064;8.624;2023-04-03T03:41:28;0.60;99.90
9998;DHT22;5038;53.064;8.624;2023-04-03T03:43:57;0.60;99.90
9998;DHT22;5038;53.064;8.624;2023-04-03T03:46:27;0.60;99.90
9998;DHT22;5038;53.064;8.624;2023-04-03T03:48:57;0.60;99.90
9998;DHT22;5038;53.064;8.624;2023-04-03T03:51:26;0.50;99.90
9998;DHT22;5038;53.064;8.624;2023-04-03T03:53:55;0.50;99.90
9998;DHT22;5038;53.064;8.624;2023-04-03T03:56:24;0.50;99.90
9998;DHT22;5038;53.064;8.624;2023-04-03T03:58:52;0.50;99.90
9998;DHT22;5038;53.064;8.624;2023-04-03T04:01:23;0.40;99.90
9998;DHT22;5038;53.064;8.624;2023-04-03T04:03:51;0.40;99.90
9998;DHT22;5038;53.064;8.624;2023-04-03T04:06:26;0.50;99.90
9998;DHT22;5038;53.064;8.624;2023-04-03T04:08:57;0.40;99.90
9998;DHT22;5038;53.064;8.624;2023-04-03T04:11:26;0.40;99.90
9998;DHT22;5038;53.064;8.624;2023-04-03T04:13:55;1.20;99.90
9998;DHT22;5038;53.064;8.624;2023-04-03T04:16:26;0.30;99.90
9998;DHT22;5038;53.064;8.624;2023-04-03T04:18:58;0.30;99.90
9998;DHT22;5038;53.064;8.624;2023-04-03T04:21:27;0.50;99.90
9998;DHT22;5038;53.064;8.624;2023-04-03T04:23:56;0.30;99.90
9998;DHT22;5038;53.064;8.624;2023-04-03T04:26:26;0.40;99.90
9998;DHT22;5038;53.064;8.624;2023-04-03T04:28:54;0.40;99.90
9998;DHT22;5038;53.064;8.624;2023-04-03T04:31:22;0.20;99.90
9998;DHT22;5038;53.064;8.624;2023-04-03T04:33:52;0.20;99.90
9998;DHT22;5038;53.064;8.624;2023-04-03T04:36:21;0.20;99.90
9998;DHT22;5038;53.064;8.624;2023-04-03T04:38:50;0.20;99.90
9998;DHT22;5038;53.064;8.624;2023-04-03T04:41:22;0.10;99.90
9998;DHT22;5038;53.064;8.624;2023-04-03T04:43:51;0.20;99.90
9998;DHT22;5038;53.064;8.624;2023-04-03T04:46:20;0.20;99.90
9998;DHT22;5038;53.064;8.624;2023-04-03T04:48:53;0.10;99.90
9998;DHT22;5038;53.064;8.624;2023-04-03T04:51:24;0.10;99.90
9998;DHT22;5038;53.064;8.624;2023-04-03T04:53:57;0.10;99.90
9998;DHT22;5038;53.064;8.624;2023-04-03T04:56:25;0.10;99.90
9998;DHT22;5038;53.064;8.624;2023-04-03T04:58:55;0.10;99.90
9998;DHT22;5038;53.064;8.624;2023-04-03T05:01:25;0.10;99.90
9998;DHT22;5038;53.064;8.624;2023-04-03T05:03:59;0.10;99.90
9998;DHT22;5038;53.064;8.624;2023-04-03T05:06:27;0.10;99.90
9998;DHT22;5038;53.064;8.624;2023-04-03T05:08:58;0.70;99.90
9998;DHT22;5038;53.064;8.624;2023-04-03T05:11:27;0.00;99.90
9998;DHT22;5038;53.064;8.624;2023-04-03T05:13:56;0.00;99.90
9998;DHT22;5038;53.064;8.624;2023-04-03T05:16:25;0.00;99.90
9998;DHT22;5038;53.064;8.624;2023-04-03T05:18:54;0.00;99.90
9998;DHT22;5038;53.064;8.624;2023-04-03T05:21:23;0.00;99.90
9998;DHT22;5038;53.064;8.624;2023-04-03T05:23:53;0.00;99.90
9998;DHT22;5038;53.064;8.624;2023-04-03T05:26:22;0.00;99.90
9998;DHT22;5038;53.064;8.624;2023-04-03T05:28:52;0.00;99.90
9998;DHT22;5038;53.064;8.624;2023-04-03T05:31:22;0.00;99.90
9998;DHT22;5038;53.064;8.624;2023-04-03T05:33:51;-0.10;99.90
9998;DHT22;5038;53.064;8.624;2023-04-03T05:36:20;-0.10;99.90
9998;DHT22;5038;53.064;8.624;2023-04-03T05:38:55;0.00;99.90
9998;DHT22;5038;53.064;8.624;2023-04-03T05:41:26;-0.10;99.90
9998;DHT22;5038;53.064;8.624;2023-04-03T05:43:55;-0.10;99.90
9998;DHT22;5038;53.064;8.624;2023-04-03T05:46:25;-0.10;99.90
9998;DHT22;5038;53.064;8.624;2023-04-03T05:48:56;0.00;99.90
9998;DHT22;5038;53.064;8.624;2023-04-03T05:51:30;-0.10;99.90
9998;DHT22;5038;53.064;8.624;2023-04-03T05:54:09;-0.10;99.90
9998;DHT22;5038;53.064;8.624;2023-04-03T05:56:41;0.00;99.90
9998;DHT22;5038;53.064;8.624;2023-04-03T05:59:10;0.00;99.90
9998;DHT22;5038;53.064;8.624;2023-04-03T06:01:39;0.00;99.90
9998;DHT22;5038;53.064;8.624;2023-04-03T06:04:07;0.10;99.90
9998;DHT22;5038;53.064;8.624;2023-04-03T06:06:45;0.10;99.90
9998;DHT22;5038;53.064;8.624;2023-04-03T06:09:14;0.10;99.90
9998;DHT22;5038;53.064;8.624;2023-04-03T06:11:44;0.20;99.90
9998;DHT22;5038;53.064;8.624;2023-04-03T06:14:13;0.20;99.90
9998;DHT22;5038;53.064;8.624;2023-04-03T06:16:42;0.30;99.90
9998;DHT22;5038;53.064;8.624;2023-04-03T06:19:11;0.00;99.90
9998;DHT22;5038;53.064;8.624;2023-04-03T06:21:45;0.70;99.90
9998;DHT22;5038;53.064;8.624;2023-04-03T06:24:15;0.90;99.90
9998;DHT22;5038;53.064;8.624;2023-04-03T06:26:45;1.20;99.90
9998;DHT22;5038;53.064;8.624;2023-04-03T06:29:14;1.50;99.90
9998;DHT22;5038;53.064;8.624;2023-04-03T06:31:43;1.80;99.90
9998;DHT22;5038;53.064;8.624;2023-04-03T06:34:12;2.10;99.90
9998;DHT22;5038;53.064;8.624;2023-04-03T06:36:42;2.40;99.90
9998;DHT22;5038;53.064;8.624;2023-04-03T06:39:14;2.70;99.90
9998;DHT22;5038;53.064;8.624;2023-04-03T06:41:43;2.90;99.90
9998;DHT22;5038;53.064;8.624;2023-04-03T06:44:12;3.20;99.90
9998;DHT22;5038;53.064;8.624;2023-04-03T06:46:43;3.40;99.90
9998;DHT22;5038;53.064;8.624;2023-04-03T06:49:12;3.60;99.90
9998;DHT22;5038;53.064;8.624;2023-04-03T06:51:42;3.80;99.90
9998;DHT22;5038;53.064;8.624;2023-04-03T06:54:10;4.00;99.90
9998;DHT22;5038;53.064;8.624;2023-04-03T06:56:38;4.10;99.90
9998;DHT22;5038;53.064;8.624;2023-04-03T06:59:06;4.30;99.90
9998;DHT22;5038;53.064;8.624;2023-04-03T07:01:37;4.40;99.90
9998;DHT22;5038;53.064;8.624;2023-04-03T07:04:05;4.60;99.90
9998;DHT22;5038;53.064;8.624;2023-04-03T07:06:34;4.70;99.90
9998;DHT22;5038;53.064;8.624;2023-04-03T07:09:03;4.80;99.90
9998;DHT22;5038;53.064;8.624;2023-04-03T07:11:31;4.90;99.90
9998;DHT22;5038;53.064;8.624;2023-04-03T07:14:00;5.00;99.90
9998;DHT22;5038;53.064;8.624;2023-04-03T07:16:28;5.00;99.90
9998;DHT22;5038;53.064;8.624;2023-04-03T07:19:00;5.00;99.90
9998;DHT22;5038;53.064;8.624;2023-04-03T07:21:28;5.00;99.90
9998;DHT22;5038;53.064;8.624;2023-04-03T07:23:56;5.00;99.90
9998;DHT22;5038;53.064;8.624;2023-04-03T07:26:24;5.00;99.90
9998;DHT22;5038;53.064;8.624;2023-04-03T07:28:53;5.10;99.90
9998;DHT22;5038;53.064;8.624;2023-04-03T07:31:21;5.10;99.90
9998;DHT22;5038;53.064;8.624;2023-04-03T07:33:53;5.10;99.90
9998;DHT22;5038;53.064;8.624;2023-04-03T07:36:25;5.20;99.90
9998;DHT22;5038;53.064;8.624;2023-04-03T07:38:54;5.20;99.90
9998;DHT22;5038;53.064;8.624;2023-04-03T07:41:25;5.30;99.90
9998;DHT22;5038;53.064;8.624;2023-04-03T07:43:54;5.30;99.90
9998;DHT22;5038;53.064;8.624;2023-04-03T07:46:23;5.40;99.90
9998;DHT22;5038;53.064;8.624;2023-04-03T07:48:53;5.50;99.90
9998;DHT22;5038;53.064;8.624;2023-04-03T07:51:26;5.60;99.90
9998;DHT22;5038;53.064;8.624;2023-04-03T07:53:56;5.80;99.90
9998;DHT22;5038;53.064;8.624;2023-04-03T07:56:26;6.00;99.90
9998;DHT22;5038;53.064;8.624;2023-04-03T07:58:58;6.20;99.90
9998;DHT22;5038;53.064;8.624;2023-04-03T08:01:26;6.40;99.90
9998;DHT22;5038;53.064;8.624;2023-04-03T08:03:57;6.60;99.90
9998;DHT22;5038;53.064;8.624;2023-04-03T08:06:28;6.70;99.90
9998;DHT22;5038;53.064;8.624;2023-04-03T08:09:12;6.90;99.90
9998;DHT22;5038;53.064;8.624;2023-04-03T08:11:41;7.00;99.90
9998;DHT22;5038;53.064;8.624;2023-04-03T08:14:10;7.20;99.90
9998;DHT22;5038;53.064;8.624;2023-04-03T08:16:43;7.30;99.90
9998;DHT22;5038;53.064;8.624;2023-04-03T08:19:12;7.40;99.90
9998;DHT22;5038;53.064;8.624;2023-04-03T08:21:54;7.50;99.90
9998;DHT22;5038;53.064;8.624;2023-04-03T08:24:23;7.70;99.90
9998;DHT22;5038;53.064;8.624;2023-04-03T08:26:52;7.80;99.90
9998;DHT22;5038;53.064;8.624;2023-04-03T08:29:20;7.90;99.90
9998;DHT22;5038;53.064;8.624;2023-04-03T08:31:49;7.90;99.90
9998;DHT22;5038;53.064;8.624;2023-04-03T08:34:18;8.00;99.90
9998;DHT22;5038;53.064;8.624;2023-04-03T08:36:47;8.10;99.90
9998;DHT22;5038;53.064;8.624;2023-04-03T08:39:17;8.20;99.90
9998;DHT22;5038;53.064;8.624;2023-04-03T08:41:46;8.30;99.90
9998;DHT22;5038;53.064;8.624;2023-04-03T08:44:21;8.40;99.90
9998;DHT22;5038;53.064;8.624;2023-04-03T08:47:02;8.50;99.90
9998;DHT22;5038;53.064;8.624;2023-04-03T08:49:35;8.60;99.90
9998;DHT22;5038;53.064;8.624;2023-04-03T08:52:11;8.70;99.90
9998;DHT22;5038;53.064;8.624;2023-04-03T08:54:49;8.80;99.90
9998;DHT22;5038;53.064;8.624;2023-04-03T08:57:28;8.80;99.90
9998;DHT22;5038;53.064;8.624;2023-04-03T08:59:59;8.80;99.90
9998;DHT22;5038;53.064;8.624;2023-04-03T09:02:34;8.70;99.90
9998;DHT22;5038;53.064;8.624;2023-04-03T09:05:11;8.80;99.90
9998;DHT22;5038;53.064;8.624;2023-04-03T09:07:43;8.80;99.90
9998;DHT22;5038;53.064;8.624;2023-04-03T09:10:23;8.70;99.90
9998;DHT22;5038;53.064;8.624;2023-04-03T09:12:57;8.80;99.90
9998;DHT22;5038;53.064;8.624;2023-04-03T09:15:27;8.80;99.90
9998;DHT22;5038;53.064;8.624;2023-04-03T09:18:13;8.90;99.90
9998;DHT22;5038;53.064;8.624;2023-04-03T09:20:48;9.00;99.90
9998;DHT22;5038;53.064;8.624;2023-04-03T09:23:22;9.00;99.90
9998;DHT22;5038;53.064;8.624;2023-04-03T09:25:58;9.00;99.90
9998;DHT22;5038;53.064;8.624;2023-04-03T09:28:33;9.00;99.90
9998;DHT22;5038;53.064;8.624;2023-04-03T09:31:20;9.10;99.90
9998;DHT22;5038;53.064;8.624;2023-04-03T09:33:52;9.20;99.90
9998;DHT22;5038;53.064;8.624;2023-04-03T09:36:44;9.20;99.60
9998;DHT22;5038;53.064;8.624;2023-04-03T09:39:15;9.20;99.50
9998;DHT22;5038;53.064;8.624;2023-04-03T09:41:59;9.20;99.30
9998;DHT22;5038;53.064;8.624;2023-04-03T09:44:30;9.20;99.00
9998;DHT22;5038;53.064;8.624;2023-04-03T09:46:59;9.20;99.00
9998;DHT22;5038;53.064;8.624;2023-04-03T09:49:45;9.30;99.00
9998;DHT22;5038;53.064;8.624;2023-04-03T09:52:22;9.30;98.80
9998;DHT22;5038;53.064;8.624;2023-04-03T09:54:51;9.30;98.60
9998;DHT22;5038;53.064;8.624;2023-04-03T09:57:21;9.30;98.40
9998;DHT22;5038;53.064;8.624;2023-04-03T09:59:57;9.20;98.10
9998;DHT22;5038;53.064;8.624;2023-04-03T10:02:34;9.20;98.00
9998;DHT22;5038;53.064;8.624;2023-04-03T10:05:04;9.30;98.10
9998;DHT22;5038;53.064;8.624;2023-04-03T10:07:37;9.30;97.90
9998;DHT22;5038;53.064;8.624;2023-04-03T10:10:18;9.30;97.50
9998;DHT22;5038;53.064;8.624;2023-04-03T10:12:48;9.20;97.60
9998;DHT22;5038;53.064;8.624;2023-04-03T10:15:17;9.20;97.50
9998;DHT22;5038;53.064;8.624;2023-04-03T10:17:54;9.30;97.40
9998;DHT22;5038;53.064;8.624;2023-04-03T10:20:32;9.30;97.00
9998;DHT22;5038;53.064;8.624;2023-04-03T10:23:14;9.20;97.00
9998;DHT22;5038;53.064;8.624;2023-04-03T10:25:48;9.20;97.00
9998;DHT22;5038;53.064;8.624;2023-04-03T10:28:25;9.30;96.90
9998;DHT22;5038;53.064;8.624;2023-04-03T10:31:00;9.20;96.70
9998;DHT22;5038;53.064;8.624;2023-04-03T10:33:39;9.30;97.00
9998;DHT22;5038;53.064;8.624;2023-04-03T10:36:19;9.30;96.80
9998;DHT22;5038;53.064;8.624;2023-04-03T10:38:58;9.30;96.30
9998;DHT22;5038;53.064;8.624;2023-04-03T10:41:35;9.30;96.20
9998;DHT22;5038;53.064;8.624;2023-04-03T10:44:16;9.30;96.00
9998;DHT22;5038;53.064;8.624;2023-04-03T10:46:49;9.20;95.30
9998;DHT22;5038;53.064;8.624;2023-04-03T10:49:32;9.20;95.30
9998;DHT22;5038;53.064;8.624;2023-04-03T10:52:13;9.10;95.30
9998;DHT22;5038;53.064;8.624;2023-04-03T10:54:49;9.20;95.50
9998;DHT22;5038;53.064;8.624;2023-04-03T10:57:24;9.20;95.70
9998;DHT22;5038;53.064;8.624;2023-04-03T10:59:57;9.20;95.50
9998;DHT22;5038;53.064;8.624;2023-04-03T11:02:29;9.10;95.60
9998;DHT22;5038;53.064;8.624;2023-04-03T11:05:02;9.20;95.70
9998;DHT22;5038;53.064;8.624;2023-04-03T11:07:34;9.20;95.60
9998;DHT22;5038;53.064;8.624;2023-04-03T11:10:11;9.20;95.40
9998;DHT22;5038;53.064;8.624;2023-04-03T11:12:43;9.20;95.50
9998;DHT22;5038;53.064;8.624;2023-04-03T11:15:17;9.20;95.20
9998;DHT22;5038;53.064;8.624;2023-04-03T11:17:49;9.10;95.20
9998;DHT22;5038;53.064;8.624;2023-04-03T11:20:23;9.20;95.20
9998;DHT22;5038;53.064;8.624;2023-04-03T11:23:00;9.20;95.30
9998;DHT22;5038;53.064;8.624;2023-04-03T11:25:31;9.20;95.20
9998;DHT22;5038;53.064;8.624;2023-04-03T11:28:01;9.20;95.20
9998;DHT22;5038;53.064;8.624;2023-04-03T11:30:36;9.20;95.40
9998;DHT22;5038;53.064;8.624;2023-04-03T11:33:16;9.20;95.30
9998;DHT22;5038;53.064;8.624;2023-04-03T11:35:49;9.20;95.20
9998;DHT22;5038;53.064;8.624;2023-04-03T11:38:24;9.30;95.00
9998;DHT22;5038;53.064;8.624;2023-04-03T11:40:55;9.20;94.80
9998;DHT22;5038;53.064;8.624;2023-04-03T11:43:26;9.20;95.10
9998;DHT22;5038;53.064;8.624;2023-04-03T11:45:58;9.20;95.00
9998;DHT22;5038;53.064;8.624;2023-04-03T11:48:48;9.30;94.90
9998;DHT22;5038;53.064;8.624;2023-04-03T11:51:41;9.40;95.00
9998;DHT22;5038;53.064;8.624;2023-04-03T11:54:36;9.40;95.00
9998;DHT22;5038;53.064;8.624;2023-04-03T11:57:45;9.40;94.80
9998;DHT22;5038;53.064;8.624;2023-04-03T12:00:52;9.30;94.90
9998;DHT22;5038;53.064;8.624;2023-04-03T12:04:05;9.20;94.90
9998;DHT22;5038;53.064;8.624;2023-04-03T12:06:58;9.10;94.70
9998;DHT22;5038;53.064;8.624;2023-04-03T12:12:37;9.10;95.10
9998;DHT22;5038;53.064;8.624;2023-04-03T12:15:38;9.10;95.00
9998;DHT22;5038;53.064;8.624;2023-04-03T12:18:39;9.20;95.10
9998;DHT22;5038;53.064;8.624;2023-04-03T12:21:11;9.20;95.10
9998;DHT22;5038;53.064;8.624;2023-04-03T12:24:04;9.30;95.20
9998;DHT22;5038;53.064;8.624;2023-04-03T12:26:37;9.30;94.60
9998;DHT22;5038;53.064;8.624;2023-04-03T12:29:20;9.40;94.80
9998;DHT22;5038;53.064;8.624;2023-04-03T12:31:58;9.40;94.60
9998;DHT22;5038;53.064;8.624;2023-04-03T12:34:44;9.40;94.60
9998;DHT22;5038;53.064;8.624;2023-04-03T12:37:39;9.30;94.60
9998;DHT22;5038;53.064;8.624;2023-04-03T12:40:16;9.20;94.50
9998;DHT22;5038;53.064;8.624;2023-04-03T12:43:28;9.20;94.50
9998;DHT22;5038;53.064;8.624;2023-04-03T12:46:03;9.30;94.30
9998;DHT22;5038;53.064;8.624;2023-04-03T12:48:38;9.30;94.60
9998;DHT22;5038;53.064;8.624;2023-04-03T12:51:15;9.40;94.60
9998;DHT22;5038;53.064;8.624;2023-04-03T12:53:46;9.40;94.60
9998;DHT22;5038;53.064;8.624;2023-04-03T12:56:21;9.40;94.60
9998;DHT22;5038;53.064;8.624;2023-04-03T12:58:51;9.50;94.50
9998;DHT22;5038;53.064;8.624;2023-04-03T13:01:21;9.50;94.40
9998;DHT22;5038;53.064;8.624;2023-04-03T13:03:53;9.50;94.40
9998;DHT22;5038;53.064;8.624;2023-04-03T13:06:24;9.60;94.30
9998;DHT22;5038;53.064;8.624;2023-04-03T13:08:57;9.60;94.30
9998;DHT22;5038;53.064;8.624;2023-04-03T13:11:28;9.60;94.30
9998;DHT22;5038;53.064;8.624;2023-04-03T13:14:00;9.70;94.30
9998;DHT22;5038;53.064;8.624;2023-04-03T13:16:29;9.70;94.30
9998;DHT22;5038;53.064;8.624;2023-04-03T13:18:59;9.70;94.20
9998;DHT22;5038;53.064;8.624;2023-04-03T13:21:28;9.60;94.10
9998;DHT22;5038;53.064;8.624;2023-04-03T13:24:01;9.60;94.30
9998;DHT22;5038;53.064;8.624;2023-04-03T13:26:42;9.60;94.20
9998;DHT22;5038;53.064;8.624;2023-04-03T13:29:22;9.60;94.10
9998;DHT22;5038;53.064;8.624;2023-04-03T13:31:59;9.70;94.10
9998;DHT22;5038;53.064;8.624;2023-04-03T13:34:29;9.70;94.30
9998;DHT22;5038;53.064;8.624;2023-04-03T13:37:04;9.80;94.30
9998;DHT22;5038;53.064;8.624;2023-04-03T13:39:36;9.90;94.50
9998;DHT22;5038;53.064;8.624;2023-04-03T13:42:16;9.90;94.30
9998;DHT22;5038;53.064;8.624;2023-04-03T13:44:45;9.90;94.30
9998;DHT22;5038;53.064;8.624;2023-04-03T13:47:17;9.80;94.20
9998;DHT22;5038;53.064;8.624;2023-04-03T13:49:59;9.80;94.10
9998;DHT22;5038;53.064;8.624;2023-04-03T13:52:30;9.90;94.20
9998;DHT22;5038;53.064;8.624;2023-04-03T13:55:03;9.90;94.30
9998;DHT22;5038;53.064;8.624;2023-04-03T13:57:36;9.90;94.20
9998;DHT22;5038;53.064;8.624;2023-04-03T14:00:21;9.90;94.00
9998;DHT22;5038;53.064;8.624;2023-04-03T14:02:49;9.90;94.10
9998;DHT22;5038;53.064;8.624;2023-04-03T14:05:18;9.90;94.20
9998;DHT22;5038;53.064;8.624;2023-04-03T14:07:48;10.00;93.70
9998;DHT22;5038;53.064;8.624;2023-04-03T14:10:17;10.00;93.50
9998;DHT22;5038;53.064;8.624;2023-04-03T14:12:46;10.00;93.30
9998;DHT22;5038;53.064;8.624;2023-04-03T14:15:18;10.00;93.30
9998;DHT22;5038;53.064;8.624;2023-04-03T14:17:48;10.10;93.40
9998;DHT22;5038;53.064;8.624;2023-04-03T14:20:20;10.10;93.30
9998;DHT22;5038;53.064;8.624;2023-04-03T14:22:49;10.20;93.50
9998;DHT22;5038;53.064;8.624;2023-04-03T14:25:20;10.20;93.40
9998;DHT22;5038;53.064;8.624;2023-04-03T14:27:51;10.20;93.40
9998;DHT22;5038;53.064;8.624;2023-04-03T14:30:22;10.20;93.20
9998;DHT22;5038;53.064;8.624;2023-04-03T14:32:51;10.20;93.30
9998;DHT22;5038;53.064;8.624;2023-04-03T14:35:20;10.20;93.20
9998;DHT22;5038;53.064;8.624;2023-04-03T14:37:49;10.20;93.20
9998;DHT22;5038;53.064;8.624;2023-04-03T14:40:23;10.20;93.30
9998;DHT22;5038;53.064;8.624;2023-04-03T14:42:52;10.20;93.20
9998;DHT22;5038;53.064;8.624;2023-04-03T14:45:23;10.20;93.10
9998;DHT22;5038;53.064;8.624;2023-04-03T14:47:54;10.30;92.90
9998;DHT22;5038;53.064;8.624;2023-04-03T14:50:25;10.30;92.90
9998;DHT22;5038;53.064;8.624;2023-04-03T14:52:57;10.30;92.60
9998;DHT22;5038;53.064;8.624;2023-04-03T14:55:27;10.30;92.50
9998;DHT22;5038;53.064;8.624;2023-04-03T14:57:55;10.30;92.70
9998;DHT22;5038;53.064;8.624;2023-04-03T15:00:24;10.30;92.70
9998;DHT22;5038;53.064;8.624;2023-04-03T15:02:53;10.30;92.70
9998;DHT22;5038;53.064;8.624;2023-04-03T15:05:22;10.30;92.90
9998;DHT22;5038;53.064;8.624;2023-04-03T15:07:52;10.30;93.10
9998;DHT22;5038;53.064;8.624;2023-04-03T15:10:23;10.30;93.00
9998;DHT22;5038;53.064;8.624;2023-04-03T15:12:54;10.30;92.80
9998;DHT22;5038;53.064;8.624;2023-04-03T15:15:24;10.20;92.70
9998;DHT22;5038;53.064;8.624;2023-04-03T15:17:54;10.10;92.90
9998;DHT22;5038;53.064;8.624;2023-04-03T15:20:26;10.10;93.00
9998;DHT22;5038;53.064;8.624;2023-04-03T15:22:57;10.10;93.00
9998;DHT22;5038;53.064;8.624;2023-04-03T15:25:28;10.10;93.00
9998;DHT22;5038;53.064;8.624;2023-04-03T15:27:57;10.10;92.90
9998;DHT22;5038;53.064;8.624;2023-04-03T15:30:26;10.10;92.80
9998;DHT22;5038;53.064;8.624;2023-04-03T15:32:54;10.10;92.90
9998;DHT22;5038;53.064;8.624;2023-04-03T15:35:23;10.20;92.90
9998;DHT22;5038;53.064;8.624;2023-04-03T15:37:51;10.20;92.90
9998;DHT22;5038;53.064;8.624;2023-04-03T15:40:19;10.20;92.70
9998;DHT22;5038;53.064;8.624;2023-04-03T15:42:48;10.10;92.50
9998;DHT22;5038;53.064;8.624;2023-04-03T15:45:21;10.10;92.30
9998;DHT22;5038;53.064;8.624;2023-04-03T15:47:50;10.10;92.50
9998;DHT22;5038;53.064;8.624;2023-04-03T15:50:18;10.00;92.30
9998;DHT22;5038;53.064;8.624;2023-04-03T15:52:49;10.00;92.20
9998;DHT22;5038;53.064;8.624;2023-04-03T15:55:21;10.00;92.10
9998;DHT22;5038;53.064;8.624;2023-04-03T15:57:49;9.90;92.70
9998;DHT22;5038;53.064;8.624;2023-04-03T16:00:18;9.90;92.90
9998;DHT22;5038;53.064;8.624;2023-04-03T16:02:51;9.90;92.70
9998;DHT22;5038;53.064;8.624;2023-04-03T16:05:20;9.90;92.90
9998;DHT22;5038;53.064;8.624;2023-04-03T16:07:48;9.90;93.00
9998;DHT22;5038;53.064;8.624;2023-04-03T16:10:18;9.90;93.00
9998;DHT22;5038;53.064;8.624;2023-04-03T16:12:46;9.90;92.80
9998;DHT22;5038;53.064;8.624;2023-04-03T16:15:15;9.80;92.70
9998;DHT22;5038;53.064;8.624;2023-04-03T16:17:43;9.70;92.70
9998;DHT22;5038;53.064;8.624;2023-04-03T16:20:14;9.60;92.60
9998;DHT22;5038;53.064;8.624;2023-04-03T16:22:43;9.50;92.60
9998;DHT22;5038;53.064;8.624;2023-04-03T16:25:11;9.50;92.60
9998;DHT22;5038;53.064;8.624;2023-04-03T16:27:40;9.40;92.70
9998;DHT22;5038;53.064;8.624;2023-04-03T16:30:09;9.40;92.80
9998;DHT22;5038;53.064;8.624;2023-04-03T16:32:38;9.50;92.70
9998;DHT22;5038;53.064;8.624;2023-04-03T16:35:08;9.50;92.60
9998;DHT22;5038;53.064;8.624;2023-04-03T16:37:39;9.50;92.60
9998;DHT22;5038;53.064;8.624;2023-04-03T16:40:08;9.50;92.60
9998;DHT22;5038;53.064;8.624;2023-04-03T16:42:38;9.50;92.50
9998;DHT22;5038;53.064;8.624;2023-04-03T16:45:08;9.60;92.70
9998;DHT22;5038;53.064;8.624;2023-04-03T16:47:36;9.60;92.90
9998;DHT22;5038;53.064;8.624;2023-04-03T16:50:05;9.70;92.90